ADDS METAR Data INFO
IDs: Format: Raw Decoded Include TAF

Data at: 1024 UTC 12 Dec 2017

KSRC 120956Z AUTO 28004KT 10SM CLR 08/00 A3013 RMK AO2 SLP213 T00830000
KSRC 120856Z AUTO 31005KT 10SM CLR 08/M01 A3013 RMK AO2 SLP213 6//// T00831006 52020
KSRC 120756Z AUTO 33010G16KT 10SM CLR 10/M01 A3011 RMK AO2 SLP206 T01001011
KSRC 120656Z AUTO 31008KT 10SM CLR 11/M02 A3009 RMK AO2 SLP199 T01111022
KSRC 120556Z AUTO 33007KT 10SM CLR 12/M03 A3007 RMK AO2 SLP193 6//// T01221028 10172 20122
KSRC 120456Z AUTO 32011G18KT 10SM CLR 13/M03 A3005 RMK AO2 SLP186 T01331028 402281028
KSRC 120356Z AUTO 10SM CLR 14/M05 RMK AO2 SLPNO T01441050 $
KSRC 120256Z AUTO 33008G16KT 10SM CLR 15/M07 A3002 RMK AO2 SLP175 6//// T01501067 53027
KSRC 120156Z AUTO 32005KT 10SM CLR 14/M06 A2999 RMK AO2 SLP167 T01441061
KSRC 120056Z AUTO 28006KT 10SM CLR 16/M07 A2995 RMK AO2 SLP154 T01611067
KSRC 112356Z AUTO 27005KT 10SM CLR 17/M07 A2994 RMK AO2 SLP147 6//// T01721067 10228 20172 55000
KSRC 112256Z AUTO 26008KT 10SM CLR 20/M07 A2992 RMK AO2 SLP144 T02001072
KSRC 112156Z AUTO 24009G21KT 10SM CLR 22/M07 A2992 RMK AO2 SLP143 T02221072
KSRC 112056Z AUTO 26010KT 10SM CLR 22/M04 A2994 RMK AO2 SLP148 6//// T02221039 56039
KSRC 111956Z AUTO 22009G17KT 10SM CLR 22/M03 A2996 RMK AO2 SLP154 T02221028
KSRC 111856Z AUTO 25012G19KT 10SM CLR 21/M04 A3000 RMK AO2 SLP171 T02061044
KSRC 111756Z AUTO 23008KT 10SM CLR 19/M03 A3005 RMK AO2 SLP187 6//// T01891028 10189 21028 58031
KSRC 111656Z AUTO 22009KT 10SM CLR 17/M02 A3010 RMK AO2 SLP205 T01671022
KSRC 111556Z AUTO 21004KT 10SM CLR 13/00 A3013 RMK AO2 SLP214 T01280000
KSRC 111456Z AUTO 04003KT 10SM CLR 07/02 A3014 RMK AO2 SLP219 T00720022 58008 TSNO
KSRC 111356Z AUTO 00000KT 10SM CLR M01/M01 A3017 RMK AO2 SLP226 T10111011 FZRANO
KSRC 111256Z AUTO 00000KT 10SM CLR M02/M02 A3018 RMK AO2 SLP229 T10221022 FZRANO
KSRC 111156Z AUTO 00000KT 10SM CLR M02/M02 A3017 RMK AO2 SLP226 6//// 7//// T10171017 10028 21017 58007 FZRANO TSNO
KSRC 111056Z AUTO 00000KT 10SM CLR M01/M02 A3017 RMK AO2 SLP228 T10061017 FZRANO
KSRC 110956Z AUTO 28003KT 10SM CLR M01/M02 A3019 RMK AO2 SLP234 T10111017 FZRANO
KSRC 110856Z AUTO 00000KT 10SM CLR 00/M02 A3019 RMK AO2 SLP233 6//// T00001022 58003 FZRANO
KSRC 110756Z AUTO 00000KT 10SM CLR 02/M02 A3019 RMK AO2 SLP235 T00171022 FZRANO
KSRC 110656Z AUTO 16003KT 10SM CLR 02/M02 A3020 RMK AO2 SLP237 T00221017 FZRANO
KSRC 110556Z AUTO 00000KT 10SM CLR 03/M02 A3020 RMK AO2 SLP236 6//// T00281017 10122 20028 58002
KSRC 110456Z AUTO 00000KT 10SM CLR 07/M02 A3020 RMK AO2 SLP237 T00671022 401671067
KSRC 110356Z AUTO 29004KT 10SM CLR 07/M02 A3021 RMK AO2 SLP240 T00721022
KSRC 110256Z AUTO 05003KT 10SM CLR 06/M02 A3020 RMK AO2 SLP238 6//// T00611017 51014
KSRC 110156Z AUTO 24003KT 10SM CLR 07/M01 A3019 RMK AO2 SLP235 T00671011
KSRC 110056Z AUTO 23004KT 10SM CLR 07/M01 A3018 RMK AO2 SLP230 T00721006
KSRC 102356Z AUTO 21006KT 10SM CLR 12/M01 A3016 RMK AO2 SLP223 6//// T01171011 10167 20106 53004
KSRC 102256Z AUTO 19005KT 10SM CLR 11/M01 A3015 RMK AO2 SLP220 T01061011